Time;durP1;ratioP1;P1;durP2;ratioP2;P2;SDS_P1;SDS_P2;PMS_P1;PMS_P2;Temp;Humidity;BMP_temperature;BMP_pressure;BME280_temperature;BME280_humidity;BME280_pressure;Samples;Min_cycle;Max_cycle;Signal;HPM_P1;HPM_P2
2023/12/12 00:00:09;;;;;;;25.07;15.87;;;;;;;;;;5049633;28;20202;-78
2023/12/12 00:02:35;;;;;;;24.73;16.87;;;;;;;;;;5048942;28;20229;-78
2023/12/12 00:05:02;;;;;;;41.33;25.33;;;;;;;;;;5048875;28;20217;-78
2023/12/12 00:07:30;;;;;;;50.27;27.50;;;;;;;;;;5048860;28;20620;-78
2023/12/12 00:09:57;;;;;;;37.70;21.30;;;;;;;;;;5049272;28;20588;-77
2023/12/12 00:12:24;;;;;;;29.03;17.93;;;;;;;;;;5049201;28;20222;-78
2023/12/12 00:14:51;;;;;;;27.63;17.80;;;;;;;;;;5048395;28;20206;-77
2023/12/12 00:17:18;;;;;;;27.27;18.97;;;;;;;;;;5048920;28;20206;-78
2023/12/12 00:19:44;;;;;;;26.83;18.13;;;;;;;;;;5049265;28;20202;-78
2023/12/12 00:22:11;;;;;;;25.23;16.87;;;;;;;;;;5048942;28;20205;-77
2023/12/12 00:24:39;;;;;;;26.07;17.33;;;;;;;;;;5048225;28;20205;-78
2023/12/12 00:27:05;;;;;;;33.33;21.27;;;;;;;;;;5048700;28;20225;-78
2023/12/12 00:29:35;;;;;;;28.03;17.87;;;;;;;;;;5048794;28;20207;-78
2023/12/12 00:32:02;;;;;;;24.40;16.10;;;;;;;;;;5049077;28;20202;-77
2023/12/12 00:34:29;;;;;;;26.93;16.67;;;;;;;;;;5047876;28;20687;-78
2023/12/12 00:36:55;;;;;;;28.50;17.97;;;;;;;;;;5048279;28;20209;-78
2023/12/12 00:39:22;;;;;;;23.77;17.57;;;;;;;;;;5049043;28;20202;-78
2023/12/12 00:41:50;;;;;;;25.27;16.43;;;;;;;;;;5048951;28;20213;-78
2023/12/12 00:44:17;;;;;;;25.20;17.00;;;;;;;;;;5048988;28;20622;-78
2023/12/12 00:46:44;;;;;;;25.43;16.60;;;;;;;;;;5048324;28;20202;-78
2023/12/12 00:49:11;;;;;;;20.90;15.50;;;;;;;;;;5047276;28;20668;-78
2023/12/12 00:51:38;;;;;;;21.83;15.17;;;;;;;;;;5048710;28;20224;-77
2023/12/12 00:54:06;;;;;;;21.50;15.30;;;;;;;;;;5047624;28;20206;-78
2023/12/12 00:56:33;;;;;;;20.43;13.43;;;;;;;;;;5048339;28;20209;-78
2023/12/12 00:59:01;;;;;;;26.80;17.77;;;;;;;;;;5048403;28;20213;-78
2023/12/12 01:01:28;;;;;;;22.20;15.20;;;;;;;;;;5048701;28;20209;-78
2023/12/12 01:03:54;;;;;;;24.30;15.43;;;;;;;;;;5048552;28;20209;-78
2023/12/12 01:06:22;;;;;;;20.53;13.93;;;;;;;;;;5048139;28;20210;-78
2023/12/12 01:08:49;;;;;;;26.13;15.13;;;;;;;;;;5022683;28;20249;-78
2023/12/12 01:11:15;;;;;;;25.50;15.93;;;;;;;;;;5047642;28;20226;-78
2023/12/12 01:13:42;;;;;;;22.03;15.63;;;;;;;;;;5048221;28;20198;-78
2023/12/12 01:16:10;;;;;;;23.23;14.47;;;;;;;;;;5048335;28;20205;-78
2023/12/12 01:18:37;;;;;;;22.97;13.90;;;;;;;;;;5047942;28;20205;-77
2023/12/12 01:21:05;;;;;;;18.37;13.37;;;;;;;;;;5048084;28;20208;-78
2023/12/12 01:23:47;;;;;;;21.87;15.53;;;;;;;;;;5048122;28;20206;-78
2023/12/12 01:26:14;;;;;;;21.33;14.63;;;;;;;;;;5047704;28;20202;-78
2023/12/12 01:28:41;;;;;;;23.20;15.90;;;;;;;;;;5047470;28;20245;-78
2023/12/12 01:31:08;;;;;;;22.13;14.90;;;;;;;;;;5047354;28;20206;-78
2023/12/12 01:33:36;;;;;;;22.73;14.43;;;;;;;;;;5047870;28;20623;-77
2023/12/12 01:36:03;;;;;;;26.40;14.90;;;;;;;;;;5047842;28;20217;-78
2023/12/12 01:38:31;;;;;;;24.77;16.37;;;;;;;;;;5047987;28;20229;-77
2023/12/12 01:40:58;;;;;;;27.87;17.80;;;;;;;;;;5047578;28;20198;-78
2023/12/12 01:43:25;;;;;;;27.20;19.43;;;;;;;;;;5047695;28;20206;-78
2023/12/12 01:45:52;;;;;;;29.87;16.93;;;;;;;;;;5047282;28;20607;-78
2023/12/12 01:48:19;;;;;;;28.30;20.67;;;;;;;;;;5047513;28;20725;-78
2023/12/12 01:50:48;;;;;;;28.20;19.83;;;;;;;;;;5033753;28;20202;-78
2023/12/12 01:53:15;;;;;;;22.60;14.37;;;;;;;;;;5047759;28;20201;-77
2023/12/12 01:55:42;;;;;;;21.43;14.80;;;;;;;;;;5046917;28;20699;-78
2023/12/12 01:58:10;;;;;;;20.03;13.73;;;;;;;;;;5047525;28;20202;-77
2023/12/12 02:00:37;;;;;;;19.87;13.27;;;;;;;;;;5046978;28;20198;-78
2023/12/12 02:03:05;;;;;;;22.83;13.60;;;;;;;;;;5047546;28;20213;-77
2023/12/12 02:05:31;;;;;;;18.20;13.50;;;;;;;;;;5047276;28;20202;-78
2023/12/12 02:08:00;;;;;;;28.90;21.10;;;;;;;;;;5047082;28;20233;-77
2023/12/12 02:10:27;;;;;;;27.27;19.77;;;;;;;;;;5047264;28;20205;-78
2023/12/12 02:12:54;;;;;;;26.00;16.43;;;;;;;;;;5047866;28;20229;-78
2023/12/12 02:15:21;;;;;;;22.33;14.53;;;;;;;;;;5047571;28;20201;-78
2023/12/12 02:17:48;;;;;;;20.77;14.20;;;;;;;;;;5046847;28;20213;-78
2023/12/12 02:20:14;;;;;;;26.83;17.93;;;;;;;;;;5047757;28;20202;-77
2023/12/12 02:22:44;;;;;;;23.93;16.57;;;;;;;;;;5047177;28;20205;-78
2023/12/12 02:25:11;;;;;;;27.57;19.73;;;;;;;;;;5021219;28;20234;-78
2023/12/12 02:27:38;;;;;;;20.60;16.00;;;;;;;;;;5033446;28;20700;-78
2023/12/12 02:30:09;;;;;;;24.40;15.07;;;;;;;;;;5047179;28;20202;-78
2023/12/12 02:32:35;;;;;;;20.47;14.13;;;;;;;;;;5046703;28;20209;-78
2023/12/12 02:35:02;;;;;;;24.10;16.20;;;;;;;;;;5047640;28;20202;-77
2023/12/12 02:37:29;;;;;;;22.33;14.23;;;;;;;;;;5047222;28;20206;-78
2023/12/12 02:39:57;;;;;;;20.87;14.20;;;;;;;;;;5047327;28;20226;-78
2023/12/12 02:42:24;;;;;;;20.67;12.70;;;;;;;;;;5046532;28;20202;-78
2023/12/12 02:44:51;;;;;;;18.40;11.70;;;;;;;;;;5047307;28;20209;-78
2023/12/12 02:47:20;;;;;;;16.27;11.07;;;;;;;;;;5046904;28;20202;-78
2023/12/12 02:49:47;;;;;;;15.77;10.43;;;;;;;;;;5047319;28;20208;-78
2023/12/12 02:52:13;;;;;;;14.37;11.53;;;;;;;;;;5046575;28;20198;-78
2023/12/12 02:54:40;;;;;;;23.87;12.67;;;;;;;;;;5047075;28;20638;-78
2023/12/12 02:57:08;;;;;;;22.40;13.33;;;;;;;;;;5046492;28;20596;-78
2023/12/12 02:59:35;;;;;;;16.73;11.93;;;;;;;;;;5046734;28;20600;-78
2023/12/12 03:02:02;;;;;;;14.97;11.40;;;;;;;;;;5046528;28;20202;-78
2023/12/12 03:04:29;;;;;;;16.80;12.57;;;;;;;;;;5046969;28;20208;-78
2023/12/12 03:06:56;;;;;;;19.97;13.87;;;;;;;;;;5046401;28;20234;-78
2023/12/12 03:09:22;;;;;;;17.67;11.73;;;;;;;;;;5046881;28;20233;-78
2023/12/12 03:11:51;;;;;;;14.93;10.83;;;;;;;;;;5048866;28;20237;-79
2023/12/12 03:14:46;;;;;;;17.07;12.83;;;;;;;;;;5050229;28;20692;-78
2023/12/12 03:17:13;;;;;;;18.07;14.57;;;;;;;;;;5027940;28;20198;-78
2023/12/12 03:19:39;;;;;;;23.23;12.33;;;;;;;;;;5049445;28;20608;-78
2023/12/12 03:22:06;;;;;;;15.53;12.33;;;;;;;;;;5049695;28;20625;-78
2023/12/12 03:24:33;;;;;;;18.50;12.93;;;;;;;;;;5049903;28;20229;-78
2023/12/12 03:27:00;;;;;;;16.27;12.43;;;;;;;;;;5049693;28;20206;-78
2023/12/12 03:29:27;;;;;;;16.73;11.37;;;;;;;;;;5036934;28;20639;-78
2023/12/12 03:31:55;;;;;;;16.40;11.60;;;;;;;;;;5049596;28;20202;-78
2023/12/12 03:34:22;;;;;;;17.20;11.43;;;;;;;;;;5049946;28;20198;-78
2023/12/12 03:36:49;;;;;;;14.60;11.47;;;;;;;;;;5049558;28;20202;-78
2023/12/12 03:39:16;;;;;;;14.37;10.97;;;;;;;;;;5049968;28;20208;-78
2023/12/12 03:41:44;;;;;;;15.80;11.10;;;;;;;;;;5049497;28;20206;-78
2023/12/12 03:44:11;;;;;;;20.50;12.10;;;;;;;;;;5048830;28;20225;-77
2023/12/12 03:46:37;;;;;;;13.20;10.17;;;;;;;;;;5050030;28;20209;-78
2023/12/12 03:49:05;;;;;;;19.57;13.30;;;;;;;;;;5049367;28;20221;-78
2023/12/12 03:51:32;;;;;;;18.13;12.67;;;;;;;;;;5049277;28;20212;-78
2023/12/12 03:53:59;;;;;;;28.87;19.87;;;;;;;;;;5049500;28;20214;-78
2023/12/12 03:56:26;;;;;;;35.67;27.40;;;;;;;;;;5048902;28;20210;-78
2023/12/12 03:58:52;;;;;;;36.30;25.20;;;;;;;;;;5048795;28;21295;-78
2023/12/12 04:01:20;;;;;;;38.07;30.90;;;;;;;;;;5049653;28;20241;-78
2023/12/12 04:03:46;;;;;;;31.60;23.77;;;;;;;;;;5049008;28;20238;-78
2023/12/12 04:06:15;;;;;;;60.27;38.83;;;;;;;;;;5049396;28;20205;-78
2023/12/12 04:08:41;;;;;;;37.07;27.77;;;;;;;;;;5048726;28;20290;-78
2023/12/12 04:11:08;;;;;;;147.00;89.70;;;;;;;;;;5048692;28;20614;-78
2023/12/12 04:13:37;;;;;;;44.57;31.10;;;;;;;;;;5048739;28;20198;-78
2023/12/12 04:16:04;;;;;;;25.00;19.07;;;;;;;;;;5049643;28;20284;-78
2023/12/12 04:18:31;;;;;;;20.93;15.37;;;;;;;;;;5048927;28;20205;-78
2023/12/12 04:20:58;;;;;;;17.20;11.93;;;;;;;;;;5049268;28;20206;-79
2023/12/12 04:23:26;;;;;;;14.37;11.20;;;;;;;;;;5048529;28;20194;-78
2023/12/12 04:25:53;;;;;;;14.30;10.70;;;;;;;;;;5049102;28;20210;-78
2023/12/12 04:28:20;;;;;;;18.43;10.80;;;;;;;;;;5048412;28;20225;-78
2023/12/12 04:30:46;;;;;;;20.70;14.03;;;;;;;;;;5048058;28;20209;-77
2023/12/12 04:33:13;;;;;;;17.73;14.27;;;;;;;;;;5049208;28;20205;-78
2023/12/12 04:35:40;;;;;;;14.50;12.87;;;;;;;;;;5047077;28;20676;-78
2023/12/12 04:38:07;;;;;;;24.27;16.00;;;;;;;;;;5041950;28;20203;-77
2023/12/12 04:40:35;;;;;;;22.83;14.63;;;;;;;;;;5042520;28;20198;-78
2023/12/12 04:43:02;;;;;;;27.40;19.03;;;;;;;;;;5048666;28;20206;-78
2023/12/12 04:45:29;;;;;;;26.60;20.70;;;;;;;;;;5046776;28;20202;-78
2023/12/12 04:47:56;;;;;;;43.70;34.13;;;;;;;;;;5028744;28;20207;-78
2023/12/12 04:50:22;;;;;;;48.00;41.23;;;;;;;;;;5030242;28;20206;-78
2023/12/12 04:52:49;;;;;;;46.83;36.60;;;;;;;;;;5033268;28;20200;-77
2023/12/12 04:55:16;;;;;;;44.17;32.90;;;;;;;;;;5031564;28;20673;-80
2023/12/12 04:57:44;;;;;;;32.43;23.93;;;;;;;;;;5047702;28;20213;-78
2023/12/12 05:00:13;;;;;;;25.43;18.93;;;;;;;;;;5046734;28;20205;-78
2023/12/12 05:02:41;;;;;;;24.47;18.00;;;;;;;;;;5040669;28;20544;-76
2023/12/12 05:05:08;;;;;;;21.40;16.67;;;;;;;;;;5045326;28;20226;-79
2023/12/12 05:07:35;;;;;;;21.00;16.13;;;;;;;;;;5047841;28;20205;-79
2023/12/12 05:10:04;;;;;;;19.47;14.63;;;;;;;;;;5047505;28;20221;-79
2023/12/12 05:12:31;;;;;;;29.57;23.37;;;;;;;;;;5047239;28;20233;-78
2023/12/12 05:14:59;;;;;;;30.83;21.87;;;;;;;;;;5047608;28;20204;-78
2023/12/12 05:17:26;;;;;;;26.97;19.73;;;;;;;;;;5047947;28;20198;-79
2023/12/12 05:19:53;;;;;;;24.53;18.43;;;;;;;;;;5035379;28;20210;-79
2023/12/12 05:22:19;;;;;;;23.70;18.47;;;;;;;;;;5048031;28;20205;-79
2023/12/12 05:24:46;;;;;;;19.77;16.13;;;;;;;;;;5047947;28;20198;-79
2023/12/12 05:27:13;;;;;;;23.27;18.20;;;;;;;;;;5048245;28;20215;-77
2023/12/12 05:29:40;;;;;;;21.40;17.60;;;;;;;;;;5048054;28;20225;-77
2023/12/12 05:32:08;;;;;;;22.90;17.33;;;;;;;;;;5047972;28;20592;-77
2023/12/12 05:34:35;;;;;;;21.30;16.43;;;;;;;;;;5046752;28;20282;-77
2023/12/12 05:37:04;;;;;;;19.13;15.53;;;;;;;;;;5048427;28;20202;-77
2023/12/12 05:39:31;;;;;;;22.03;19.63;;;;;;;;;;5047757;28;20198;-77
2023/12/12 05:41:58;;;;;;;25.40;18.60;;;;;;;;;;5046588;28;20202;-77
2023/12/12 05:44:24;;;;;;;21.23;17.60;;;;;;;;;;5047244;28;20198;-77
2023/12/12 05:46:51;;;;;;;19.33;15.90;;;;;;;;;;5047984;28;20656;-77
2023/12/12 05:49:23;;;;;;;21.47;16.60;;;;;;;;;;5047381;28;20222;-77
2023/12/12 05:51:50;;;;;;;22.97;18.53;;;;;;;;;;5047235;28;20284;-77
2023/12/12 05:54:17;;;;;;;22.97;15.20;;;;;;;;;;5047587;28;20205;-77
2023/12/12 05:56:43;;;;;;;25.57;17.63;;;;;;;;;;5047425;28;20193;-77
2023/12/12 05:59:10;;;;;;;21.43;16.73;;;;;;;;;;5047717;28;20641;-77
2023/12/12 06:01:39;;;;;;;27.07;20.43;;;;;;;;;;5033622;28;20210;-77
2023/12/12 06:04:07;;;;;;;23.40;18.10;;;;;;;;;;5047359;28;20208;-77
2023/12/12 06:06:41;;;;;;;22.43;16.30;;;;;;;;;;5047292;28;20281;-77
2023/12/12 06:09:09;;;;;;;17.57;13.37;;;;;;;;;;5048076;28;20309;-77
2023/12/12 06:11:36;;;;;;;16.43;13.00;;;;;;;;;;5047202;28;20234;-77
2023/12/12 06:14:03;;;;;;;18.07;13.83;;;;;;;;;;5047256;28;20205;-77
2023/12/12 06:16:30;;;;;;;18.07;14.27;;;;;;;;;;5046980;28;20672;-78
2023/12/12 06:18:57;;;;;;;18.60;12.67;;;;;;;;;;5047868;28;20297;-78
2023/12/12 06:21:24;;;;;;;15.33;11.30;;;;;;;;;;5047036;28;20262;-77
2023/12/12 06:23:52;;;;;;;12.77;10.23;;;;;;;;;;5047204;28;20201;-77
2023/12/12 06:26:19;;;;;;;18.83;15.00;;;;;;;;;;5043206;28;20199;-77
2023/12/12 06:28:46;;;;;;;25.00;19.30;;;;;;;;;;5038353;28;20229;-77
2023/12/12 06:31:12;;;;;;;18.13;14.20;;;;;;;;;;5047211;28;20212;-77
2023/12/12 06:33:39;;;;;;;16.40;11.67;;;;;;;;;;5046793;28;20201;-78
2023/12/12 06:36:07;;;;;;;14.77;10.03;;;;;;;;;;5046562;28;20209;-78
2023/12/12 06:38:34;;;;;;;20.07;13.90;;;;;;;;;;5046588;28;20198;-77
2023/12/12 06:41:05;;;;;;;22.23;18.50;;;;;;;;;;5046901;28;20262;-78
2023/12/12 06:43:32;;;;;;;26.50;20.70;;;;;;;;;;5047117;28;20213;-78
2023/12/12 06:45:58;;;;;;;27.17;22.30;;;;;;;;;;5047506;28;20233;-78
2023/12/12 06:48:26;;;;;;;25.33;21.20;;;;;;;;;;5050108;28;20209;-78
2023/12/12 06:50:53;;;;;;;31.87;24.93;;;;;;;;;;5050428;28;20587;-78
2023/12/12 06:53:19;;;;;;;29.83;22.03;;;;;;;;;;5050487;28;20206;-78
2023/12/12 06:55:47;;;;;;;23.57;19.13;;;;;;;;;;5049759;28;20227;-78
2023/12/12 06:58:16;;;;;;;25.53;19.30;;;;;;;;;;5049854;28;20205;-78
2023/12/12 07:00:43;;;;;;;23.03;17.83;;;;;;;;;;5050663;28;20202;-77
2023/12/12 07:03:11;;;;;;;23.97;17.10;;;;;;;;;;5049797;28;20327;-78
2023/12/12 07:05:37;;;;;;;26.33;18.90;;;;;;;;;;5023807;28;20747;-78
2023/12/12 07:08:07;;;;;;;21.10;17.20;;;;;;;;;;5049784;28;20206;-78
2023/12/12 07:10:34;;;;;;;18.03;15.07;;;;;;;;;;5024703;28;20225;-77
2023/12/12 07:13:01;;;;;;;20.50;14.93;;;;;;;;;;5049544;28;20686;-78
2023/12/12 07:15:30;;;;;;;17.37;14.67;;;;;;;;;;5050047;28;20197;-77
2023/12/12 07:17:56;;;;;;;23.03;17.37;;;;;;;;;;5049332;28;20664;-78
2023/12/12 07:20:23;;;;;;;21.17;17.20;;;;;;;;;;5050207;28;20206;-77
2023/12/12 07:22:50;;;;;;;22.13;17.40;;;;;;;;;;5049470;28;20279;-77
2023/12/12 07:25:17;;;;;;;19.17;17.10;;;;;;;;;;5050311;28;20206;-77
2023/12/12 07:27:44;;;;;;;22.57;16.67;;;;;;;;;;5050009;28;20198;-77
2023/12/12 07:30:12;;;;;;;18.93;15.27;;;;;;;;;;5049741;28;20230;-77
2023/12/12 07:32:40;;;;;;;26.67;21.67;;;;;;;;;;5049807;28;20642;-77
2023/12/12 07:35:08;;;;;;;18.77;16.03;;;;;;;;;;5050054;28;20205;-77
2023/12/12 07:37:34;;;;;;;21.13;15.83;;;;;;;;;;5049578;28;20671;-77
2023/12/12 07:40:04;;;;;;;22.30;17.53;;;;;;;;;;5050006;28;20220;-77
2023/12/12 07:42:31;;;;;;;23.30;18.10;;;;;;;;;;5049780;28;20224;-77
2023/12/12 07:44:58;;;;;;;21.60;18.13;;;;;;;;;;5050456;28;20224;-77
2023/12/12 07:47:25;;;;;;;20.37;16.97;;;;;;;;;;5048989;28;20207;-77
2023/12/12 07:49:54;;;;;;;21.27;16.37;;;;;;;;;;5049697;28;20381;-77
2023/12/12 07:52:20;;;;;;;24.03;16.17;;;;;;;;;;5048589;28;20209;-77
2023/12/12 07:54:47;;;;;;;21.40;15.27;;;;;;;;;;5049762;28;20198;-77
2023/12/12 07:57:14;;;;;;;21.60;14.97;;;;;;;;;;5048918;28;20194;-76
2023/12/12 07:59:41;;;;;;;19.27;14.03;;;;;;;;;;5049625;28;20676;-77
2023/12/12 08:02:08;;;;;;;20.63;13.63;;;;;;;;;;5048925;28;20225;-76
2023/12/12 08:04:35;;;;;;;20.57;15.10;;;;;;;;;;5049547;28;20217;-78
2023/12/12 08:07:04;;;;;;;26.47;18.23;;;;;;;;;;5049265;28;20204;-77
2023/12/12 08:09:30;;;;;;;21.20;16.07;;;;;;;;;;5049754;28;20604;-77
2023/12/12 08:11:57;;;;;;;19.70;13.53;;;;;;;;;;5048600;28;20261;-78
2023/12/12 08:14:24;;;;;;;20.37;14.30;;;;;;;;;;5049315;28;20201;-78
2023/12/12 08:16:53;;;;;;;19.73;13.70;;;;;;;;;;5043513;28;20214;-78
2023/12/12 08:19:20;;;;;;;13.33;11.07;;;;;;;;;;5041647;28;20233;-78
2023/12/12 08:21:47;;;;;;;16.17;12.03;;;;;;;;;;5048822;28;20690;-78
2023/12/12 08:24:15;;;;;;;13.07;9.27;;;;;;;;;;5049484;28;20228;-78
2023/12/12 08:26:42;;;;;;;14.43;10.37;;;;;;;;;;5048236;28;20205;-78
2023/12/12 08:29:09;;;;;;;14.70;10.87;;;;;;;;;;5049081;28;20202;-78
2023/12/12 08:31:37;;;;;;;11.50;9.30;;;;;;;;;;5048893;28;20684;-78
2023/12/12 08:34:07;;;;;;;12.90;10.37;;;;;;;;;;5048131;28;20237;-79
2023/12/12 08:36:34;;;;;;;11.37;8.10;;;;;;;;;;5048938;28;20206;-79
2023/12/12 08:39:04;;;;;;;8.63;6.67;;;;;;;;;;5048806;28;20206;-78
2023/12/12 08:41:32;;;;;;;10.37;8.07;;;;;;;;;;5049118;28;20209;-78
2023/12/12 08:43:59;;;;;;;13.70;8.80;;;;;;;;;;5048712;28;20201;-78
2023/12/12 08:46:27;;;;;;;9.57;7.67;;;;;;;;;;5039788;28;20217;-78
2023/12/12 08:48:55;;;;;;;13.10;9.73;;;;;;;;;;5031806;28;20241;-78
2023/12/12 08:51:22;;;;;;;13.17;9.03;;;;;;;;;;5048654;28;20278;-78
2023/12/12 08:53:49;;;;;;;11.67;8.63;;;;;;;;;;5047670;28;20890;-78
2023/12/12 08:56:17;;;;;;;14.30;9.53;;;;;;;;;;5048703;28;20202;-78
2023/12/12 08:58:46;;;;;;;10.77;8.10;;;;;;;;;;5048559;28;20198;-78
2023/12/12 09:01:14;;;;;;;14.37;8.70;;;;;;;;;;5048158;28;20684;-78
2023/12/12 09:03:41;;;;;;;9.53;7.60;;;;;;;;;;5048060;28;20208;-78
2023/12/12 09:06:08;;;;;;;11.77;6.40;;;;;;;;;;5048221;28;20587;-78
2023/12/12 09:08:35;;;;;;;5.97;5.40;;;;;;;;;;5047133;28;20190;-78
2023/12/12 09:11:02;;;;;;;5.03;4.47;;;;;;;;;;5048562;28;20245;-78
2023/12/12 09:13:29;;;;;;;7.40;5.80;;;;;;;;;;5047846;28;20202;-78
2023/12/12 09:15:57;;;;;;;6.57;5.10;;;;;;;;;;5048073;28;20202;-78
2023/12/12 09:18:24;;;;;;;9.17;6.73;;;;;;;;;;5047704;28;20209;-77
2023/12/12 09:20:51;;;;;;;7.83;6.07;;;;;;;;;;5048282;28;20676;-78
2023/12/12 09:23:20;;;;;;;8.50;6.50;;;;;;;;;;5048244;28;20197;-78
2023/12/12 09:25:47;;;;;;;6.73;5.53;;;;;;;;;;5047928;28;20206;-78
2023/12/12 09:28:14;;;;;;;5.80;5.03;;;;;;;;;;5047492;28;20202;-78
2023/12/12 09:30:41;;;;;;;6.80;5.40;;;;;;;;;;5048792;28;20603;-78
2023/12/12 09:33:09;;;;;;;8.27;5.87;;;;;;;;;;5047015;28;20209;-78
2023/12/12 09:35:36;;;;;;;6.83;4.43;;;;;;;;;;5048561;28;20213;-78
2023/12/12 09:38:03;;;;;;;6.70;4.43;;;;;;;;;;5047643;28;20212;-77
2023/12/12 09:40:30;;;;;;;4.67;3.93;;;;;;;;;;5047815;28;20209;-78
2023/12/12 09:42:58;;;;;;;5.43;4.03;;;;;;;;;;5047543;28;20202;-77
2023/12/12 09:45:25;;;;;;;4.10;3.47;;;;;;;;;;5047620;28;20207;-78
2023/12/12 09:47:52;;;;;;;3.30;3.00;;;;;;;;;;5047555;28;20755;-78
2023/12/12 09:50:21;;;;;;;3.77;3.40;;;;;;;;;;5047401;28;20692;-78
2023/12/12 09:52:48;;;;;;;5.73;4.10;;;;;;;;;;5047842;28;20204;-78
2023/12/12 09:55:15;;;;;;;6.30;4.57;;;;;;;;;;5047286;28;20213;-78
2023/12/12 09:57:42;;;;;;;4.70;3.77;;;;;;;;;;5047738;28;20313;-78
2023/12/12 10:00:10;;;;;;;4.30;3.90;;;;;;;;;;5047331;28;20207;-78
2023/12/12 10:02:38;;;;;;;5.07;4.57;;;;;;;;;;5047537;28;20230;-78
2023/12/12 10:05:09;;;;;;;5.20;4.70;;;;;;;;;;5047683;28;20210;-78
2023/12/12 10:07:38;;;;;;;7.20;4.33;;;;;;;;;;5046957;28;20614;-79
2023/12/12 10:10:09;;;;;;;4.37;3.70;;;;;;;;;;5046777;28;20230;-79
2023/12/12 10:12:36;;;;;;;5.00;4.50;;;;;;;;;;5047717;28;20238;-79
2023/12/12 10:15:05;;;;;;;5.07;3.90;;;;;;;;;;5047513;28;20217;-78
2023/12/12 10:17:38;;;;;;;9.17;4.87;;;;;;;;;;5047069;28;20748;-79
2023/12/12 10:20:07;;;;;;;6.37;4.97;;;;;;;;;;5048367;28;20213;-78
2023/12/12 10:22:34;;;;;;;7.57;5.83;;;;;;;;;;5051277;28;20210;-79
2023/12/12 10:25:14;;;;;;;9.70;6.83;;;;;;;;;;5050524;28;20206;-78
2023/12/12 10:27:42;;;;;;;6.43;5.10;;;;;;;;;;5050385;28;20204;-79
2023/12/12 10:30:11;;;;;;;5.93;4.70;;;;;;;;;;5050515;28;20332;-80
2023/12/12 10:32:38;;;;;;;6.47;5.20;;;;;;;;;;5050280;28;20205;-79
2023/12/12 10:35:08;;;;;;;4.60;3.80;;;;;;;;;;5051052;28;20258;-77
2023/12/12 10:37:35;;;;;;;7.50;4.00;;;;;;;;;;5049959;28;20242;-79
2023/12/12 10:40:17;;;;;;;5.50;4.20;;;;;;;;;;5051237;28;20763;-77
2023/12/12 10:42:44;;;;;;;4.30;3.93;;;;;;;;;;5049964;28;20643;-77
2023/12/12 10:45:13;;;;;;;4.93;3.93;;;;;;;;;;5050800;28;20206;-77
2023/12/12 10:47:43;;;;;;;4.50;4.10;;;;;;;;;;5049792;28;20234;-77
2023/12/12 10:50:17;;;;;;;5.10;4.60;;;;;;;;;;5051304;28;20695;-76
2023/12/12 10:52:45;;;;;;;6.73;5.10;;;;;;;;;;5025698;28;20236;-77
2023/12/12 10:55:13;;;;;;;6.53;4.70;;;;;;;;;;5049954;28;20229;-77
2023/12/12 10:57:43;;;;;;;5.77;4.87;;;;;;;;;;5036722;28;20202;-76
2023/12/12 11:00:15;;;;;;;5.07;4.27;;;;;;;;;;5046767;28;20218;-77
2023/12/12 11:02:42;;;;;;;14.47;11.07;;;;;;;;;;5045096;28;20206;-78
2023/12/12 11:05:11;;;;;;;24.97;18.63;;;;;;;;;;5043767;28;20203;-77
2023/12/12 11:07:38;;;;;;;24.97;17.77;;;;;;;;;;5040348;28;20267;-77
2023/12/12 11:10:10;;;;;;;18.07;13.00;;;;;;;;;;5049348;28;20205;-78
2023/12/12 11:12:39;;;;;;;10.63;9.13;;;;;;;;;;5045358;28;20234;-77
2023/12/12 11:15:08;;;;;;;13.37;9.73;;;;;;;;;;5048041;28;20213;-76
2023/12/12 11:17:35;;;;;;;13.40;8.47;;;;;;;;;;5041687;28;20206;-77
2023/12/12 11:20:11;;;;;;;10.43;8.40;;;;;;;;;;5048949;28;20213;-77
2023/12/12 11:22:39;;;;;;;8.47;7.17;;;;;;;;;;5038724;28;20209;-77
2023/12/12 11:25:08;;;;;;;13.17;10.20;;;;;;;;;;5035353;28;20195;-76
2023/12/12 11:27:36;;;;;;;22.40;13.23;;;;;;;;;;5033685;28;20210;-76
2023/12/12 11:30:04;;;;;;;31.93;20.00;;;;;;;;;;5041274;28;20668;-76
2023/12/12 11:32:34;;;;;;;16.57;13.23;;;;;;;;;;5043724;28;20609;-77
2023/12/12 11:35:01;;;;;;;26.10;18.90;;;;;;;;;;5048980;28;20212;-77
2023/12/12 11:37:40;;;;;;;28.83;21.60;;;;;;;;;;5043120;28;20205;-77
2023/12/12 11:40:09;;;;;;;28.73;20.27;;;;;;;;;;5048088;28;20217;-76
2023/12/12 11:42:36;;;;;;;20.87;17.77;;;;;;;;;;5049182;28;20213;-76
2023/12/12 11:45:03;;;;;;;20.00;15.83;;;;;;;;;;5049941;28;20202;-78
2023/12/12 11:47:32;;;;;;;20.60;15.47;;;;;;;;;;5048682;28;20294;-78
2023/12/12 11:50:30;;;;;;;16.87;12.80;;;;;;;;;;5046328;28;20723;-78
2023/12/12 11:52:57;;;;;;;26.67;20.43;;;;;;;;;;5037878;28;20234;-78
2023/12/12 11:55:28;;;;;;;14.50;12.40;;;;;;;;;;5044654;28;20585;-79
2023/12/12 11:58:02;;;;;;;15.00;9.63;;;;;;;;;;5049499;28;20583;-79
2023/12/12 12:00:32;;;;;;;11.80;10.50;;;;;;;;;;5048588;28;20210;-79
2023/12/12 12:03:01;;;;;;;12.73;10.17;;;;;;;;;;5043626;28;20193;-78
2023/12/12 12:05:28;;;;;;;11.87;9.00;;;;;;;;;;5049164;28;20202;-79
2023/12/12 12:07:56;;;;;;;13.90;10.90;;;;;;;;;;5048916;28;20233;-78
2023/12/12 12:10:23;;;;;;;18.30;12.30;;;;;;;;;;5048691;28;20206;-79
2023/12/12 12:12:58;;;;;;;17.20;14.03;;;;;;;;;;5039159;28;20310;-78
2023/12/12 12:15:25;;;;;;;22.90;17.53;;;;;;;;;;5036483;28;20906;-79
2023/12/12 12:17:52;;;;;;;22.50;16.10;;;;;;;;;;5048715;28;20224;-78
2023/12/12 12:20:20;;;;;;;19.50;14.07;;;;;;;;;;5049360;28;20213;-78
2023/12/12 12:22:47;;;;;;;16.87;12.53;;;;;;;;;;5048789;28;20201;-79
2023/12/12 12:25:21;;;;;;;15.93;12.13;;;;;;;;;;5048771;28;20661;-78
2023/12/12 12:27:50;;;;;;;15.43;11.43;;;;;;;;;;5048324;28;20194;-78
2023/12/12 12:30:20;;;;;;;22.97;15.13;;;;;;;;;;5035757;28;20282;-79
2023/12/12 12:32:59;;;;;;;22.07;15.47;;;;;;;;;;5044959;28;20280;-78
2023/12/12 12:35:27;;;;;;;18.37;14.37;;;;;;;;;;5043035;28;20202;-78
2023/12/12 12:37:56;;;;;;;21.67;16.37;;;;;;;;;;5041808;28;20213;-78
2023/12/12 12:40:34;;;;;;;33.90;20.87;;;;;;;;;;5034594;28;20206;-78
2023/12/12 12:43:04;;;;;;;24.87;17.33;;;;;;;;;;5047881;28;20255;-79
2023/12/12 12:45:31;;;;;;;37.47;23.90;;;;;;;;;;5048559;28;20260;-78
2023/12/12 12:47:58;;;;;;;24.73;19.50;;;;;;;;;;5043574;28;20213;-78
2023/12/12 12:50:26;;;;;;;25.47;18.70;;;;;;;;;;5046576;28;20202;-78
2023/12/12 12:52:54;;;;;;;23.43;17.70;;;;;;;;;;5036555;28;20703;-78
2023/12/12 12:55:21;;;;;;;21.93;17.53;;;;;;;;;;5048425;28;20235;-79
2023/12/12 12:57:48;;;;;;;21.93;17.33;;;;;;;;;;5048229;28;20682;-78
2023/12/12 13:00:17;;;;;;;26.40;20.23;;;;;;;;;;5048845;28;20271;-78
2023/12/12 13:02:44;;;;;;;47.87;31.90;;;;;;;;;;5048538;28;20330;-78
2023/12/12 13:05:11;;;;;;;23.53;17.33;;;;;;;;;;5047511;28;20206;-78
2023/12/12 13:07:39;;;;;;;25.23;17.37;;;;;;;;;;5047478;28;20203;-79
2023/12/12 13:10:09;;;;;;;23.30;17.57;;;;;;;;;;5048349;28;20206;-78
2023/12/12 13:12:38;;;;;;;21.57;18.00;;;;;;;;;;5048182;28;20241;-78
2023/12/12 13:15:09;;;;;;;28.23;21.63;;;;;;;;;;5047949;28;20199;-78
2023/12/12 13:17:36;;;;;;;29.83;22.67;;;;;;;;;;5048044;28;20699;-79
2023/12/12 13:20:09;;;;;;;51.07;35.23;;;;;;;;;;5048177;28;20198;-78
2023/12/12 13:22:40;;;;;;;41.10;26.30;;;;;;;;;;5048229;28;20258;-78
2023/12/12 13:25:09;;;;;;;89.57;50.40;;;;;;;;;;5048261;28;20643;-80
2023/12/12 13:27:36;;;;;;;48.73;40.13;;;;;;;;;;5047725;28;20639;-78
2023/12/12 13:30:09;;;;;;;41.20;34.23;;;;;;;;;;5048572;28;20206;-78
2023/12/12 13:32:38;;;;;;;25.30;18.40;;;;;;;;;;5048169;28;20375;-78
2023/12/12 13:35:08;;;;;;;26.73;19.80;;;;;;;;;;5048130;28;20266;-78
2023/12/12 13:37:36;;;;;;;24.17;19.00;;;;;;;;;;5047918;28;20206;-78
2023/12/12 13:40:08;;;;;;;33.00;21.00;;;;;;;;;;5047381;28;20202;-78
2023/12/12 13:42:35;;;;;;;32.47;28.03;;;;;;;;;;5047892;28;20206;-78
2023/12/12 13:45:06;;;;;;;21.57;18.20;;;;;;;;;;5048124;28;20259;-78
2023/12/12 13:47:32;;;;;;;23.47;18.87;;;;;;;;;;5047652;28;20209;-78
2023/12/12 13:50:00;;;;;;;25.37;19.80;;;;;;;;;;5047772;28;20206;-78
2023/12/12 13:52:28;;;;;;;18.93;16.83;;;;;;;;;;5047348;28;20636;-78
2023/12/12 13:54:55;;;;;;;26.27;18.43;;;;;;;;;;5047144;28;20205;-78
2023/12/12 13:57:23;;;;;;;23.70;17.43;;;;;;;;;;5047683;28;20202;-78
2023/12/12 13:59:51;;;;;;;59.07;38.90;;;;;;;;;;5048046;28;20251;-78
2023/12/12 14:02:18;;;;;;;68.93;45.23;;;;;;;;;;5047363;28;20700;-78
2023/12/12 14:04:45;;;;;;;70.43;50.33;;;;;;;;;;5047578;28;20677;-78
2023/12/12 14:07:12;;;;;;;48.93;33.60;;;;;;;;;;5047928;28;20198;-79
2023/12/12 14:09:39;;;;;;;28.50;20.37;;;;;;;;;;5048146;28;20206;-78
2023/12/12 14:12:08;;;;;;;30.43;22.43;;;;;;;;;;5046788;28;20240;-78
2023/12/12 14:14:36;;;;;;;42.60;26.83;;;;;;;;;;5046738;28;20648;-79
2023/12/12 14:17:03;;;;;;;36.33;28.17;;;;;;;;;;5047416;28;20205;-78
2023/12/12 14:19:29;;;;;;;34.80;30.27;;;;;;;;;;5047223;28;20213;-78
2023/12/12 14:21:56;;;;;;;38.80;30.67;;;;;;;;;;5047795;28;20213;-78
2023/12/12 14:24:23;;;;;;;43.27;36.03;;;;;;;;;;5045689;28;20198;-78